sensor_id;sensor_type;location;lat;lon;timestamp;P1;durP1;ratioP1;P2;durP2;ratioP2
59306;SDS011;47983;53.016;-2.260;2023-08-24T00:02:26;12.70;;;6.43;;
59306;SDS011;47983;53.016;-2.260;2023-08-24T00:04:54;15.68;;;6.85;;
59306;SDS011;47983;53.016;-2.260;2023-08-24T00:07:23;10.75;;;5.60;;
59306;SDS011;47983;53.016;-2.260;2023-08-24T00:09:52;15.90;;;5.95;;
59306;SDS011;47983;53.016;-2.260;2023-08-24T00:12:20;12.93;;;6.38;;
59306;SDS011;47983;53.016;-2.260;2023-08-24T00:14:48;10.45;;;5.20;;
59306;SDS011;47983;53.016;-2.260;2023-08-24T00:17:16;9.90;;;5.30;;
59306;SDS011;47983;53.016;-2.260;2023-08-24T00:19:44;11.48;;;5.45;;
59306;SDS011;47983;53.016;-2.260;2023-08-24T00:22:13;10.18;;;5.35;;
59306;SDS011;47983;53.016;-2.260;2023-08-24T00:24:41;8.57;;;4.60;;
59306;SDS011;47983;53.016;-2.260;2023-08-24T00:27:08;13.20;;;4.97;;
59306;SDS011;47983;53.016;-2.260;2023-08-24T00:29:37;10.00;;;4.93;;
59306;SDS011;47983;53.016;-2.260;2023-08-24T00:32:04;8.88;;;4.72;;
59306;SDS011;47983;53.016;-2.260;2023-08-24T00:34:32;10.07;;;5.28;;
59306;SDS011;47983;53.016;-2.260;2023-08-24T00:37:00;8.15;;;4.45;;
59306;SDS011;47983;53.016;-2.260;2023-08-24T00:39:29;8.40;;;5.15;;
59306;SDS011;47983;53.016;-2.260;2023-08-24T00:41:57;11.57;;;5.47;;
59306;SDS011;47983;53.016;-2.260;2023-08-24T00:44:25;9.65;;;5.20;;
59306;SDS011;47983;53.016;-2.260;2023-08-24T00:46:52;8.90;;;4.95;;
59306;SDS011;47983;53.016;-2.260;2023-08-24T00:49:23;9.32;;;4.85;;
59306;SDS011;47983;53.016;-2.260;2023-08-24T00:51:51;11.80;;;4.97;;
59306;SDS011;47983;53.016;-2.260;2023-08-24T00:54:20;13.20;;;4.97;;
59306;SDS011;47983;53.016;-2.260;2023-08-24T00:56:47;11.95;;;4.93;;
59306;SDS011;47983;53.016;-2.260;2023-08-24T00:59:15;9.98;;;4.68;;
59306;SDS011;47983;53.016;-2.260;2023-08-24T01:01:43;13.00;;;4.80;;
59306;SDS011;47983;53.016;-2.260;2023-08-24T01:04:14;11.30;;;5.40;;
59306;SDS011;47983;53.016;-2.260;2023-08-24T01:06:42;12.05;;;5.68;;
59306;SDS011;47983;53.016;-2.260;2023-08-24T01:09:09;11.40;;;5.68;;
59306;SDS011;47983;53.016;-2.260;2023-08-24T01:11:42;10.95;;;5.50;;
59306;SDS011;47983;53.016;-2.260;2023-08-24T01:16:42;5.35;;;2.97;;
59306;SDS011;47983;53.016;-2.260;2023-08-24T01:19:20;12.43;;;3.63;;
59306;SDS011;47983;53.016;-2.260;2023-08-24T01:21:58;4.85;;;3.40;;
59306;SDS011;47983;53.016;-2.260;2023-08-24T01:24:40;9.32;;;4.18;;
59306;SDS011;47983;53.016;-2.260;2023-08-24T01:27:14;9.00;;;4.47;;
59306;SDS011;47983;53.016;-2.260;2023-08-24T01:29:42;8.27;;;4.55;;
59306;SDS011;47983;53.016;-2.260;2023-08-24T01:32:10;7.22;;;3.70;;
59306;SDS011;47983;53.016;-2.260;2023-08-24T01:34:40;10.93;;;3.88;;
59306;SDS011;47983;53.016;-2.260;2023-08-24T01:37:08;7.88;;;3.63;;
59306;SDS011;47983;53.016;-2.260;2023-08-24T01:39:59;7.60;;;3.80;;
59306;SDS011;47983;53.016;-2.260;2023-08-24T01:42:25;4.78;;;3.10;;
59306;SDS011;47983;53.016;-2.260;2023-08-24T01:44:57;4.60;;;3.55;;
59306;SDS011;47983;53.016;-2.260;2023-08-24T01:47:30;7.88;;;2.75;;
59306;SDS011;47983;53.016;-2.260;2023-08-24T01:49:59;8.47;;;3.77;;
59306;SDS011;47983;53.016;-2.260;2023-08-24T01:52:28;5.63;;;3.05;;
59306;SDS011;47983;53.016;-2.260;2023-08-24T01:54:56;5.25;;;3.40;;
59306;SDS011;47983;53.016;-2.260;2023-08-24T01:57:24;5.93;;;3.30;;
59306;SDS011;47983;53.016;-2.260;2023-08-24T01:59:53;6.47;;;3.35;;
59306;SDS011;47983;53.016;-2.260;2023-08-24T02:02:21;8.32;;;3.72;;
59306;SDS011;47983;53.016;-2.260;2023-08-24T02:04:51;8.48;;;4.07;;
59306;SDS011;47983;53.016;-2.260;2023-08-24T02:07:19;5.43;;;3.47;;
59306;SDS011;47983;53.016;-2.260;2023-08-24T02:09:47;8.02;;;3.88;;
59306;SDS011;47983;53.016;-2.260;2023-08-24T02:12:14;5.10;;;3.17;;
59306;SDS011;47983;53.016;-2.260;2023-08-24T02:14:42;6.05;;;3.33;;
59306;SDS011;47983;53.016;-2.260;2023-08-24T02:17:10;7.22;;;3.13;;
59306;SDS011;47983;53.016;-2.260;2023-08-24T02:19:38;7.00;;;3.35;;
59306;SDS011;47983;53.016;-2.260;2023-08-24T02:22:06;6.07;;;3.22;;
59306;SDS011;47983;53.016;-2.260;2023-08-24T02:24:34;9.82;;;3.08;;
59306;SDS011;47983;53.016;-2.260;2023-08-24T02:27:02;6.05;;;3.05;;
59306;SDS011;47983;53.016;-2.260;2023-08-24T02:29:30;10.27;;;3.58;;
59306;SDS011;47983;53.016;-2.260;2023-08-24T02:31:57;5.22;;;3.35;;
59306;SDS011;47983;53.016;-2.260;2023-08-24T02:34:25;6.88;;;4.20;;
59306;SDS011;47983;53.016;-2.260;2023-08-24T02:36:56;8.48;;;3.30;;
59306;SDS011;47983;53.016;-2.260;2023-08-24T02:39:24;7.00;;;3.13;;
59306;SDS011;47983;53.016;-2.260;2023-08-24T02:41:52;8.55;;;3.45;;
59306;SDS011;47983;53.016;-2.260;2023-08-24T02:44:20;10.05;;;3.63;;
59306;SDS011;47983;53.016;-2.260;2023-08-24T02:46:48;4.85;;;2.88;;
59306;SDS011;47983;53.016;-2.260;2023-08-24T02:49:17;7.70;;;3.33;;
59306;SDS011;47983;53.016;-2.260;2023-08-24T02:51:45;9.60;;;3.20;;
59306;SDS011;47983;53.016;-2.260;2023-08-24T02:54:13;7.25;;;3.25;;
59306;SDS011;47983;53.016;-2.260;2023-08-24T02:56:41;5.13;;;3.08;;
59306;SDS011;47983;53.016;-2.260;2023-08-24T02:59:08;6.47;;;2.88;;
59306;SDS011;47983;53.016;-2.260;2023-08-24T03:01:36;6.00;;;2.65;;
59306;SDS011;47983;53.016;-2.260;2023-08-24T03:04:05;9.68;;;3.35;;
59306;SDS011;47983;53.016;-2.260;2023-08-24T03:06:33;4.65;;;2.67;;
59306;SDS011;47983;53.016;-2.260;2023-08-24T03:09:00;4.82;;;3.00;;
59306;SDS011;47983;53.016;-2.260;2023-08-24T03:11:31;6.50;;;2.95;;
59306;SDS011;47983;53.016;-2.260;2023-08-24T03:13:59;5.93;;;2.92;;
59306;SDS011;47983;53.016;-2.260;2023-08-24T03:16:26;6.00;;;3.03;;
59306;SDS011;47983;53.016;-2.260;2023-08-24T03:18:54;6.80;;;2.80;;
59306;SDS011;47983;53.016;-2.260;2023-08-24T03:21:22;4.95;;;3.25;;
59306;SDS011;47983;53.016;-2.260;2023-08-24T03:23:49;6.35;;;3.15;;
59306;SDS011;47983;53.016;-2.260;2023-08-24T03:26:19;7.27;;;3.57;;
59306;SDS011;47983;53.016;-2.260;2023-08-24T03:28:47;5.05;;;3.13;;
59306;SDS011;47983;53.016;-2.260;2023-08-24T03:31:15;6.13;;;3.17;;
59306;SDS011;47983;53.016;-2.260;2023-08-24T03:33:43;4.95;;;3.35;;
59306;SDS011;47983;53.016;-2.260;2023-08-24T03:36:11;5.25;;;2.95;;
59306;SDS011;47983;53.016;-2.260;2023-08-24T03:38:38;10.27;;;3.22;;
59306;SDS011;47983;53.016;-2.260;2023-08-24T03:41:06;7.50;;;3.30;;
59306;SDS011;47983;53.016;-2.260;2023-08-24T03:43:34;10.25;;;3.88;;
59306;SDS011;47983;53.016;-2.260;2023-08-24T03:46:03;8.05;;;3.40;;
59306;SDS011;47983;53.016;-2.260;2023-08-24T03:48:31;4.78;;;3.03;;
59306;SDS011;47983;53.016;-2.260;2023-08-24T03:51:00;4.95;;;3.25;;
59306;SDS011;47983;53.016;-2.260;2023-08-24T03:53:28;6.43;;;3.00;;
59306;SDS011;47983;53.016;-2.260;2023-08-24T03:55:56;3.85;;;2.42;;
59306;SDS011;47983;53.016;-2.260;2023-08-24T03:58:24;3.33;;;2.58;;
59306;SDS011;47983;53.016;-2.260;2023-08-24T04:00:52;4.25;;;2.55;;
59306;SDS011;47983;53.016;-2.260;2023-08-24T04:03:21;3.22;;;2.65;;
59306;SDS011;47983;53.016;-2.260;2023-08-24T04:05:49;5.65;;;2.95;;
59306;SDS011;47983;53.016;-2.260;2023-08-24T04:08:17;6.38;;;3.78;;
59306;SDS011;47983;53.016;-2.260;2023-08-24T04:10:45;9.07;;;4.07;;
59306;SDS011;47983;53.016;-2.260;2023-08-24T04:13:12;12.27;;;5.43;;
59306;SDS011;47983;53.016;-2.260;2023-08-24T04:15:40;12.55;;;6.10;;
59306;SDS011;47983;53.016;-2.260;2023-08-24T04:18:08;5.85;;;4.28;;
59306;SDS011;47983;53.016;-2.260;2023-08-24T04:20:37;9.77;;;4.90;;
59306;SDS011;47983;53.016;-2.260;2023-08-24T04:23:05;13.40;;;5.18;;
59306;SDS011;47983;53.016;-2.260;2023-08-24T04:25:34;8.50;;;5.20;;
59306;SDS011;47983;53.016;-2.260;2023-08-24T04:28:02;10.32;;;4.68;;
59306;SDS011;47983;53.016;-2.260;2023-08-24T04:30:30;10.05;;;5.10;;
59306;SDS011;47983;53.016;-2.260;2023-08-24T04:32:57;10.93;;;6.35;;
59306;SDS011;47983;53.016;-2.260;2023-08-24T04:35:26;8.50;;;5.50;;
59306;SDS011;47983;53.016;-2.260;2023-08-24T04:37:54;8.85;;;5.05;;
59306;SDS011;47983;53.016;-2.260;2023-08-24T04:40:22;8.23;;;5.53;;
59306;SDS011;47983;53.016;-2.260;2023-08-24T04:42:49;8.02;;;5.05;;
59306;SDS011;47983;53.016;-2.260;2023-08-24T04:45:17;9.60;;;5.10;;
59306;SDS011;47983;53.016;-2.260;2023-08-24T04:47:45;11.52;;;6.15;;
59306;SDS011;47983;53.016;-2.260;2023-08-24T04:50:13;9.75;;;5.47;;
59306;SDS011;47983;53.016;-2.260;2023-08-24T04:52:41;11.57;;;5.75;;
59306;SDS011;47983;53.016;-2.260;2023-08-24T04:55:09;9.23;;;5.80;;
59306;SDS011;47983;53.016;-2.260;2023-08-24T04:57:37;10.25;;;5.28;;
59306;SDS011;47983;53.016;-2.260;2023-08-24T05:00:04;10.45;;;5.90;;
59306;SDS011;47983;53.016;-2.260;2023-08-24T05:02:34;12.57;;;5.60;;
59306;SDS011;47983;53.016;-2.260;2023-08-24T05:05:02;9.85;;;5.05;;
59306;SDS011;47983;53.016;-2.260;2023-08-24T05:07:31;8.10;;;5.05;;
59306;SDS011;47983;53.016;-2.260;2023-08-24T05:09:59;8.80;;;4.68;;
59306;SDS011;47983;53.016;-2.260;2023-08-24T05:12:27;7.25;;;4.60;;
59306;SDS011;47983;53.016;-2.260;2023-08-24T05:14:54;7.60;;;4.00;;
59306;SDS011;47983;53.016;-2.260;2023-08-24T05:17:22;8.57;;;4.72;;
59306;SDS011;47983;53.016;-2.260;2023-08-24T05:19:53;11.43;;;4.20;;
59306;SDS011;47983;53.016;-2.260;2023-08-24T05:22:21;9.98;;;4.53;;
59306;SDS011;47983;53.016;-2.260;2023-08-24T05:24:49;5.57;;;3.60;;
59306;SDS011;47983;53.016;-2.260;2023-08-24T05:27:17;8.80;;;4.47;;
59306;SDS011;47983;53.016;-2.260;2023-08-24T05:29:44;7.10;;;4.80;;
59306;SDS011;47983;53.016;-2.260;2023-08-24T05:32:12;13.13;;;4.38;;
59306;SDS011;47983;53.016;-2.260;2023-08-24T05:34:40;9.18;;;4.53;;
59306;SDS011;47983;53.016;-2.260;2023-08-24T05:37:07;8.50;;;4.55;;
59306;SDS011;47983;53.016;-2.260;2023-08-24T05:39:35;10.00;;;5.10;;
59306;SDS011;47983;53.016;-2.260;2023-08-24T05:42:02;7.28;;;4.40;;
59306;SDS011;47983;53.016;-2.260;2023-08-24T05:44:30;11.70;;;5.05;;
59306;SDS011;47983;53.016;-2.260;2023-08-24T05:46:58;10.32;;;4.88;;
59306;SDS011;47983;53.016;-2.260;2023-08-24T05:49:26;7.57;;;4.22;;
59306;SDS011;47983;53.016;-2.260;2023-08-24T05:51:54;10.18;;;4.78;;
59306;SDS011;47983;53.016;-2.260;2023-08-24T05:54:22;11.98;;;4.80;;
59306;SDS011;47983;53.016;-2.260;2023-08-24T05:56:52;13.68;;;4.90;;
59306;SDS011;47983;53.016;-2.260;2023-08-24T05:59:20;11.85;;;4.82;;
59306;SDS011;47983;53.016;-2.260;2023-08-24T06:01:48;13.80;;;5.03;;
59306;SDS011;47983;53.016;-2.260;2023-08-24T06:04:16;9.93;;;5.18;;
59306;SDS011;47983;53.016;-2.260;2023-08-24T06:06:43;9.25;;;4.68;;
59306;SDS011;47983;53.016;-2.260;2023-08-24T06:09:12;11.85;;;5.07;;
59306;SDS011;47983;53.016;-2.260;2023-08-24T06:11:39;12.77;;;5.03;;
59306;SDS011;47983;53.016;-2.260;2023-08-24T06:14:07;5.70;;;3.97;;
59306;SDS011;47983;53.016;-2.260;2023-08-24T06:16:35;6.47;;;4.35;;
59306;SDS011;47983;53.016;-2.260;2023-08-24T06:19:03;6.80;;;4.03;;
59306;SDS011;47983;53.016;-2.260;2023-08-24T06:21:31;8.38;;;3.72;;
59306;SDS011;47983;53.016;-2.260;2023-08-24T06:23:59;5.82;;;3.58;;
59306;SDS011;47983;53.016;-2.260;2023-08-24T06:26:28;6.72;;;3.22;;
59306;SDS011;47983;53.016;-2.260;2023-08-24T06:28:55;7.72;;;3.33;;
59306;SDS011;47983;53.016;-2.260;2023-08-24T06:31:23;7.53;;;3.60;;
59306;SDS011;47983;53.016;-2.260;2023-08-24T06:33:51;12.18;;;3.28;;
59306;SDS011;47983;53.016;-2.260;2023-08-24T06:36:20;4.78;;;3.55;;
59306;SDS011;47983;53.016;-2.260;2023-08-24T06:38:47;4.55;;;2.15;;
59306;SDS011;47983;53.016;-2.260;2023-08-24T06:41:15;6.00;;;1.90;;
59306;SDS011;47983;53.016;-2.260;2023-08-24T06:43:43;3.45;;;1.60;;
59306;SDS011;47983;53.016;-2.260;2023-08-24T06:46:10;3.80;;;1.63;;
59306;SDS011;47983;53.016;-2.260;2023-08-24T06:48:38;3.95;;;1.52;;
59306;SDS011;47983;53.016;-2.260;2023-08-24T06:51:06;4.43;;;1.38;;
59306;SDS011;47983;53.016;-2.260;2023-08-24T06:53:34;4.88;;;1.63;;
59306;SDS011;47983;53.016;-2.260;2023-08-24T06:56:04;3.67;;;1.50;;
59306;SDS011;47983;53.016;-2.260;2023-08-24T06:58:32;3.05;;;1.65;;
59306;SDS011;47983;53.016;-2.260;2023-08-24T07:01:00;5.05;;;1.65;;
59306;SDS011;47983;53.016;-2.260;2023-08-24T07:03:33;6.90;;;2.03;;
59306;SDS011;47983;53.016;-2.260;2023-08-24T07:06:00;3.58;;;1.70;;
59306;SDS011;47983;53.016;-2.260;2023-08-24T07:08:28;6.18;;;1.88;;
59306;SDS011;47983;53.016;-2.260;2023-08-24T07:10:56;6.82;;;1.70;;
59306;SDS011;47983;53.016;-2.260;2023-08-24T07:13:23;3.20;;;1.63;;
59306;SDS011;47983;53.016;-2.260;2023-08-24T07:15:53;4.30;;;1.55;;
59306;SDS011;47983;53.016;-2.260;2023-08-24T07:18:22;6.33;;;1.90;;
59306;SDS011;47983;53.016;-2.260;2023-08-24T07:20:53;3.42;;;1.50;;
59306;SDS011;47983;53.016;-2.260;2023-08-24T07:23:21;5.10;;;1.58;;
59306;SDS011;47983;53.016;-2.260;2023-08-24T07:25:49;4.93;;;1.30;;
59306;SDS011;47983;53.016;-2.260;2023-08-24T07:28:17;6.75;;;2.00;;
59306;SDS011;47983;53.016;-2.260;2023-08-24T07:30:45;4.53;;;1.60;;
59306;SDS011;47983;53.016;-2.260;2023-08-24T07:33:13;4.90;;;1.55;;
59306;SDS011;47983;53.016;-2.260;2023-08-24T07:35:41;1.70;;;1.40;;
59306;SDS011;47983;53.016;-2.260;2023-08-24T07:38:08;4.30;;;1.58;;
59306;SDS011;47983;53.016;-2.260;2023-08-24T07:40:36;4.55;;;1.45;;
59306;SDS011;47983;53.016;-2.260;2023-08-24T07:43:04;2.70;;;1.35;;
59306;SDS011;47983;53.016;-2.260;2023-08-24T07:45:31;8.00;;;1.50;;
59306;SDS011;47983;53.016;-2.260;2023-08-24T07:48:00;2.92;;;1.20;;
59306;SDS011;47983;53.016;-2.260;2023-08-24T07:50:28;5.55;;;1.70;;
59306;SDS011;47983;53.016;-2.260;2023-08-24T07:52:56;4.03;;;1.10;;
59306;SDS011;47983;53.016;-2.260;2023-08-24T07:55:24;2.25;;;1.42;;
59306;SDS011;47983;53.016;-2.260;2023-08-24T07:57:52;2.97;;;1.67;;
59306;SDS011;47983;53.016;-2.260;2023-08-24T08:00:20;5.28;;;1.50;;
59306;SDS011;47983;53.016;-2.260;2023-08-24T08:02:52;2.00;;;1.25;;
59306;SDS011;47983;53.016;-2.260;2023-08-24T08:05:20;6.50;;;1.77;;
59306;SDS011;47983;53.016;-2.260;2023-08-24T08:07:49;2.97;;;1.50;;
59306;SDS011;47983;53.016;-2.260;2023-08-24T08:10:17;1.98;;;1.10;;
59306;SDS011;47983;53.016;-2.260;2023-08-24T08:12:47;1.13;;;0.93;;
59306;SDS011;47983;53.016;-2.260;2023-08-24T08:15:15;3.35;;;1.00;;
59306;SDS011;47983;53.016;-2.260;2023-08-24T08:17:43;3.55;;;0.93;;
59306;SDS011;47983;53.016;-2.260;2023-08-24T08:20:13;2.05;;;1.15;;
59306;SDS011;47983;53.016;-2.260;2023-08-24T08:22:41;3.42;;;1.40;;
59306;SDS011;47983;53.016;-2.260;2023-08-24T08:25:09;3.15;;;1.15;;
59306;SDS011;47983;53.016;-2.260;2023-08-24T08:27:39;3.42;;;1.00;;
59306;SDS011;47983;53.016;-2.260;2023-08-24T08:30:07;1.70;;;0.85;;
59306;SDS011;47983;53.016;-2.260;2023-08-24T08:32:35;3.15;;;1.00;;
59306;SDS011;47983;53.016;-2.260;2023-08-24T08:35:02;2.22;;;1.20;;
59306;SDS011;47983;53.016;-2.260;2023-08-24T08:37:32;2.33;;;1.10;;
59306;SDS011;47983;53.016;-2.260;2023-08-24T08:40:00;2.42;;;1.30;;
59306;SDS011;47983;53.016;-2.260;2023-08-24T08:42:30;2.67;;;1.35;;
59306;SDS011;47983;53.016;-2.260;2023-08-24T08:44:58;2.75;;;1.10;;
59306;SDS011;47983;53.016;-2.260;2023-08-24T08:47:29;4.30;;;1.30;;
59306;SDS011;47983;53.016;-2.260;2023-08-24T08:49:58;3.25;;;1.52;;
59306;SDS011;47983;53.016;-2.260;2023-08-24T08:52:27;7.50;;;1.80;;
59306;SDS011;47983;53.016;-2.260;2023-08-24T08:54:55;4.70;;;1.30;;
59306;SDS011;47983;53.016;-2.260;2023-08-24T08:57:23;4.00;;;2.22;;
59306;SDS011;47983;53.016;-2.260;2023-08-24T08:59:52;3.20;;;2.30;;
59306;SDS011;47983;53.016;-2.260;2023-08-24T09:02:20;4.82;;;3.35;;
59306;SDS011;47983;53.016;-2.260;2023-08-24T09:04:50;5.60;;;2.90;;
59306;SDS011;47983;53.016;-2.260;2023-08-24T09:09:47;5.63;;;3.70;;
59306;SDS011;47983;53.016;-2.260;2023-08-24T09:12:16;2.90;;;2.22;;
59306;SDS011;47983;53.016;-2.260;2023-08-24T09:14:43;4.65;;;4.07;;
59306;SDS011;47983;53.016;-2.260;2023-08-24T09:17:19;4.20;;;3.30;;
59306;SDS011;47983;53.016;-2.260;2023-08-24T09:19:50;5.78;;;2.40;;
59306;SDS011;47983;53.016;-2.260;2023-08-24T09:22:21;8.93;;;6.97;;
59306;SDS011;47983;53.016;-2.260;2023-08-24T09:24:49;8.82;;;7.15;;
59306;SDS011;47983;53.016;-2.260;2023-08-24T09:27:21;20.80;;;12.55;;
59306;SDS011;47983;53.016;-2.260;2023-08-24T09:29:52;22.35;;;17.58;;
59306;SDS011;47983;53.016;-2.260;2023-08-24T09:32:30;20.88;;;15.38;;
59306;SDS011;47983;53.016;-2.260;2023-08-24T09:35:08;22.13;;;13.85;;
59306;SDS011;47983;53.016;-2.260;2023-08-24T09:37:37;16.42;;;12.75;;
59306;SDS011;47983;53.016;-2.260;2023-08-24T09:40:06;14.40;;;11.10;;
59306;SDS011;47983;53.016;-2.260;2023-08-24T09:45:15;13.73;;;10.80;;
59306;SDS011;47983;53.016;-2.260;2023-08-24T09:47:50;16.20;;;12.63;;
59306;SDS011;47983;53.016;-2.260;2023-08-24T09:50:21;20.55;;;14.35;;
59306;SDS011;47983;53.016;-2.260;2023-08-24T09:52:49;24.25;;;17.30;;
59306;SDS011;47983;53.016;-2.260;2023-08-24T09:55:24;25.50;;;19.20;;
59306;SDS011;47983;53.016;-2.260;2023-08-24T09:57:57;24.55;;;18.95;;
59306;SDS011;47983;53.016;-2.260;2023-08-24T10:00:27;25.02;;;19.73;;
59306;SDS011;47983;53.016;-2.260;2023-08-24T10:02:55;26.13;;;19.60;;
59306;SDS011;47983;53.016;-2.260;2023-08-24T10:05:25;28.98;;;19.13;;
59306;SDS011;47983;53.016;-2.260;2023-08-24T10:08:11;26.15;;;19.45;;
59306;SDS011;47983;53.016;-2.260;2023-08-24T10:10:41;24.05;;;18.83;;
59306;SDS011;47983;53.016;-2.260;2023-08-24T10:13:58;26.08;;;18.35;;
59306;SDS011;47983;53.016;-2.260;2023-08-24T10:16:11;21.60;;;16.83;;
59306;SDS011;47983;53.016;-2.260;2023-08-24T10:18:40;20.73;;;15.05;;
59306;SDS011;47983;53.016;-2.260;2023-08-24T10:21:08;18.15;;;14.48;;
59306;SDS011;47983;53.016;-2.260;2023-08-24T10:23:36;15.45;;;13.40;;
59306;SDS011;47983;53.016;-2.260;2023-08-24T10:26:06;22.55;;;14.02;;
59306;SDS011;47983;53.016;-2.260;2023-08-24T10:28:35;20.58;;;14.02;;
59306;SDS011;47983;53.016;-2.260;2023-08-24T10:31:03;19.90;;;15.63;;
59306;SDS011;47983;53.016;-2.260;2023-08-24T10:33:31;23.63;;;16.60;;
59306;SDS011;47983;53.016;-2.260;2023-08-24T10:36:04;23.25;;;19.33;;
59306;SDS011;47983;53.016;-2.260;2023-08-24T10:38:34;25.88;;;20.40;;
59306;SDS011;47983;53.016;-2.260;2023-08-24T10:41:11;30.08;;;21.55;;
59306;SDS011;47983;53.016;-2.260;2023-08-24T10:43:48;26.85;;;22.55;;
59306;SDS011;47983;53.016;-2.260;2023-08-24T10:46:17;27.77;;;20.90;;
59306;SDS011;47983;53.016;-2.260;2023-08-24T10:53:53;25.60;;;18.60;;
59306;SDS011;47983;53.016;-2.260;2023-08-24T10:56:36;21.17;;;16.50;;
59306;SDS011;47983;53.016;-2.260;2023-08-24T11:01:40;20.67;;;17.55;;
59306;SDS011;47983;53.016;-2.260;2023-08-24T11:04:10;20.80;;;16.77;;
59306;SDS011;47983;53.016;-2.260;2023-08-24T11:06:54;21.83;;;15.82;;
59306;SDS011;47983;53.016;-2.260;2023-08-24T11:09:23;20.55;;;12.80;;
59306;SDS011;47983;53.016;-2.260;2023-08-24T11:11:55;14.65;;;9.27;;
59306;SDS011;47983;53.016;-2.260;2023-08-24T11:14:25;17.48;;;9.57;;
59306;SDS011;47983;53.016;-2.260;2023-08-24T11:16:55;12.70;;;7.78;;
59306;SDS011;47983;53.016;-2.260;2023-08-24T11:19:25;10.73;;;6.30;;
59306;SDS011;47983;53.016;-2.260;2023-08-24T11:21:53;14.15;;;5.00;;
59306;SDS011;47983;53.016;-2.260;2023-08-24T11:24:22;7.07;;;3.50;;
59306;SDS011;47983;53.016;-2.260;2023-08-24T11:26:49;14.25;;;3.35;;
59306;SDS011;47983;53.016;-2.260;2023-08-24T11:29:19;8.98;;;3.30;;
59306;SDS011;47983;53.016;-2.260;2023-08-24T11:31:47;7.13;;;2.85;;
59306;SDS011;47983;53.016;-2.260;2023-08-24T11:34:15;6.13;;;2.65;;
59306;SDS011;47983;53.016;-2.260;2023-08-24T11:36:47;7.47;;;2.28;;
59306;SDS011;47983;53.016;-2.260;2023-08-24T11:39:16;12.70;;;2.10;;
59306;SDS011;47983;53.016;-2.260;2023-08-24T11:42:00;5.43;;;2.63;;
59306;SDS011;47983;53.016;-2.260;2023-08-24T11:44:30;9.50;;;1.95;;
59306;SDS011;47983;53.016;-2.260;2023-08-24T11:47:22;7.03;;;2.10;;
59306;SDS011;47983;53.016;-2.260;2023-08-24T11:49:50;4.32;;;1.90;;
59306;SDS011;47983;53.016;-2.260;2023-08-24T11:52:18;6.68;;;1.88;;
59306;SDS011;47983;53.016;-2.260;2023-08-24T11:54:46;5.93;;;1.92;;
59306;SDS011;47983;53.016;-2.260;2023-08-24T11:57:13;4.40;;;1.77;;
59306;SDS011;47983;53.016;-2.260;2023-08-24T11:59:41;4.13;;;1.48;;
59306;SDS011;47983;53.016;-2.260;2023-08-24T12:02:10;8.45;;;2.40;;
59306;SDS011;47983;53.016;-2.260;2023-08-24T12:04:41;11.38;;;2.28;;
59306;SDS011;47983;53.016;-2.260;2023-08-24T12:07:11;5.93;;;2.08;;
59306;SDS011;47983;53.016;-2.260;2023-08-24T12:09:40;8.63;;;1.50;;
59306;SDS011;47983;53.016;-2.260;2023-08-24T12:12:15;5.22;;;1.88;;
59306;SDS011;47983;53.016;-2.260;2023-08-24T12:14:44;8.80;;;2.08;;
59306;SDS011;47983;53.016;-2.260;2023-08-24T12:17:14;4.47;;;1.58;;
59306;SDS011;47983;53.016;-2.260;2023-08-24T12:19:44;8.43;;;1.92;;
59306;SDS011;47983;53.016;-2.260;2023-08-24T12:22:16;4.93;;;2.05;;
59306;SDS011;47983;53.016;-2.260;2023-08-24T12:24:48;3.72;;;2.13;;
59306;SDS011;47983;53.016;-2.260;2023-08-24T12:29:47;7.25;;;2.40;;
59306;SDS011;47983;53.016;-2.260;2023-08-24T12:32:16;7.93;;;2.20;;
59306;SDS011;47983;53.016;-2.260;2023-08-24T12:34:47;10.77;;;2.70;;
59306;SDS011;47983;53.016;-2.260;2023-08-24T12:37:16;6.63;;;2.72;;
59306;SDS011;47983;53.016;-2.260;2023-08-24T12:39:44;11.60;;;4.05;;
59306;SDS011;47983;53.016;-2.260;2023-08-24T12:42:13;9.52;;;3.95;;
59306;SDS011;47983;53.016;-2.260;2023-08-24T12:44:40;15.63;;;4.57;;
59306;SDS011;47983;53.016;-2.260;2023-08-24T12:47:08;14.75;;;5.00;;
59306;SDS011;47983;53.016;-2.260;2023-08-24T12:49:36;11.65;;;5.63;;
59306;SDS011;47983;53.016;-2.260;2023-08-24T12:52:03;11.68;;;5.88;;
59306;SDS011;47983;53.016;-2.260;2023-08-24T12:54:32;14.07;;;6.32;;
59306;SDS011;47983;53.016;-2.260;2023-08-24T12:56:59;10.70;;;6.25;;
59306;SDS011;47983;53.016;-2.260;2023-08-24T12:59:27;13.50;;;4.72;;
59306;SDS011;47983;53.016;-2.260;2023-08-24T13:01:55;12.38;;;4.78;;
59306;SDS011;47983;53.016;-2.260;2023-08-24T13:04:25;12.50;;;4.38;;
59306;SDS011;47983;53.016;-2.260;2023-08-24T13:06:55;15.45;;;4.38;;
59306;SDS011;47983;53.016;-2.260;2023-08-24T13:09:25;8.77;;;3.63;;
59306;SDS011;47983;53.016;-2.260;2023-08-24T13:14:20;8.18;;;3.35;;
59306;SDS011;47983;53.016;-2.260;2023-08-24T13:16:48;10.93;;;3.80;;
59306;SDS011;47983;53.016;-2.260;2023-08-24T13:19:16;8.82;;;5.15;;
59306;SDS011;47983;53.016;-2.260;2023-08-24T13:21:45;22.30;;;6.55;;
59306;SDS011;47983;53.016;-2.260;2023-08-24T13:24:13;10.60;;;4.75;;
59306;SDS011;47983;53.016;-2.260;2023-08-24T13:26:40;11.85;;;4.20;;
59306;SDS011;47983;53.016;-2.260;2023-08-24T13:29:08;12.40;;;3.80;;
59306;SDS011;47983;53.016;-2.260;2023-08-24T13:31:36;10.13;;;3.58;;
59306;SDS011;47983;53.016;-2.260;2023-08-24T13:34:04;21.70;;;4.82;;
59306;SDS011;47983;53.016;-2.260;2023-08-24T13:36:34;13.13;;;3.55;;
59306;SDS011;47983;53.016;-2.260;2023-08-24T13:39:02;9.20;;;3.30;;
59306;SDS011;47983;53.016;-2.260;2023-08-24T13:41:31;12.43;;;3.40;;
59306;SDS011;47983;53.016;-2.260;2023-08-24T13:43:59;8.77;;;3.13;;
59306;SDS011;47983;53.016;-2.260;2023-08-24T13:46:27;13.52;;;3.60;;
59306;SDS011;47983;53.016;-2.260;2023-08-24T13:48:54;8.07;;;2.70;;
59306;SDS011;47983;53.016;-2.260;2023-08-24T13:51:22;4.97;;;2.42;;
59306;SDS011;47983;53.016;-2.260;2023-08-24T13:53:53;6.40;;;2.38;;
59306;SDS011;47983;53.016;-2.260;2023-08-24T13:56:21;7.22;;;2.25;;
59306;SDS011;47983;53.016;-2.260;2023-08-24T13:58:49;8.52;;;2.38;;
59306;SDS011;47983;53.016;-2.260;2023-08-24T14:01:16;12.20;;;2.28;;
59306;SDS011;47983;53.016;-2.260;2023-08-24T14:03:44;12.25;;;2.80;;
59306;SDS011;47983;53.016;-2.260;2023-08-24T14:06:12;7.97;;;2.42;;
59306;SDS011;47983;53.016;-2.260;2023-08-24T14:08:40;9.88;;;2.17;;
59306;SDS011;47983;53.016;-2.260;2023-08-24T14:11:07;7.82;;;2.03;;
59306;SDS011;47983;53.016;-2.260;2023-08-24T14:13:36;5.95;;;1.80;;
59306;SDS011;47983;53.016;-2.260;2023-08-24T14:16:03;5.25;;;1.80;;
59306;SDS011;47983;53.016;-2.260;2023-08-24T14:18:31;12.20;;;1.98;;
59306;SDS011;47983;53.016;-2.260;2023-08-24T14:20:59;7.68;;;1.27;;
59306;SDS011;47983;53.016;-2.260;2023-08-24T14:23:27;7.88;;;1.50;;
59306;SDS011;47983;53.016;-2.260;2023-08-24T14:25:54;4.30;;;1.30;;
59306;SDS011;47983;53.016;-2.260;2023-08-24T14:28:22;6.28;;;1.40;;
59306;SDS011;47983;53.016;-2.260;2023-08-24T14:30:50;13.15;;;1.90;;
59306;SDS011;47983;53.016;-2.260;2023-08-24T14:33:19;8.15;;;1.73;;
59306;SDS011;47983;53.016;-2.260;2023-08-24T14:35:50;13.75;;;2.20;;
59306;SDS011;47983;53.016;-2.260;2023-08-24T14:38:19;9.05;;;2.63;;
59306;SDS011;47983;53.016;-2.260;2023-08-24T14:40:46;6.30;;;3.00;;
59306;SDS011;47983;53.016;-2.260;2023-08-24T14:43:14;14.77;;;3.22;;
59306;SDS011;47983;53.016;-2.260;2023-08-24T14:45:42;12.60;;;3.85;;
59306;SDS011;47983;53.016;-2.260;2023-08-24T14:48:10;12.65;;;3.70;;
59306;SDS011;47983;53.016;-2.260;2023-08-24T14:50:38;6.85;;;3.30;;
59306;SDS011;47983;53.016;-2.260;2023-08-24T14:53:06;9.07;;;3.03;;
59306;SDS011;47983;53.016;-2.260;2023-08-24T14:55:34;14.45;;;2.90;;
59306;SDS011;47983;53.016;-2.260;2023-08-24T14:58:05;12.88;;;3.40;;
59306;SDS011;47983;53.016;-2.260;2023-08-24T15:00:33;10.70;;;2.53;;